sensor_id;sensor_type;location;lat;lon;timestamp;P1;durP1;ratioP1;P2;durP2;ratioP2
44426;SDS011;30133;47.866;-4.222;2022-12-05T00:01:29;7.93;;;4.53;;
44426;SDS011;30133;47.866;-4.222;2022-12-05T00:04:07;7.25;;;4.45;;
44426;SDS011;30133;47.866;-4.222;2022-12-05T00:06:36;9.15;;;4.68;;
44426;SDS011;30133;47.866;-4.222;2022-12-05T00:09:05;7.75;;;4.45;;
44426;SDS011;30133;47.866;-4.222;2022-12-05T00:11:34;7.55;;;4.47;;
44426;SDS011;30133;47.866;-4.222;2022-12-05T00:14:04;8.25;;;5.07;;
44426;SDS011;30133;47.866;-4.222;2022-12-05T00:16:32;8.65;;;4.68;;
44426;SDS011;30133;47.866;-4.222;2022-12-05T00:19:00;7.50;;;5.20;;
44426;SDS011;30133;47.866;-4.222;2022-12-05T00:21:30;7.65;;;5.00;;
44426;SDS011;30133;47.866;-4.222;2022-12-05T00:24:00;8.18;;;4.88;;
44426;SDS011;30133;47.866;-4.222;2022-12-05T00:26:30;8.32;;;4.43;;
44426;SDS011;30133;47.866;-4.222;2022-12-05T00:28:57;7.68;;;4.65;;
44426;SDS011;30133;47.866;-4.222;2022-12-05T00:31:25;8.05;;;4.15;;
44426;SDS011;30133;47.866;-4.222;2022-12-05T00:33:52;7.03;;;4.18;;
44426;SDS011;30133;47.866;-4.222;2022-12-05T00:36:21;8.68;;;4.25;;
44426;SDS011;30133;47.866;-4.222;2022-12-05T00:38:53;9.77;;;4.75;;
44426;SDS011;30133;47.866;-4.222;2022-12-05T00:41:21;7.68;;;5.00;;
44426;SDS011;30133;47.866;-4.222;2022-12-05T00:43:49;6.65;;;4.22;;
44426;SDS011;30133;47.866;-4.222;2022-12-05T00:46:17;7.20;;;4.13;;
44426;SDS011;30133;47.866;-4.222;2022-12-05T00:48:47;8.27;;;4.90;;
44426;SDS011;30133;47.866;-4.222;2022-12-05T00:51:15;7.78;;;4.75;;
44426;SDS011;30133;47.866;-4.222;2022-12-05T00:53:45;9.40;;;5.38;;
44426;SDS011;30133;47.866;-4.222;2022-12-05T00:56:17;7.85;;;4.75;;
44426;SDS011;30133;47.866;-4.222;2022-12-05T00:58:47;8.40;;;4.68;;
44426;SDS011;30133;47.866;-4.222;2022-12-05T01:01:18;8.65;;;4.45;;
44426;SDS011;30133;47.866;-4.222;2022-12-05T01:03:47;10.88;;;5.22;;
44426;SDS011;30133;47.866;-4.222;2022-12-05T01:06:17;8.45;;;4.78;;
44426;SDS011;30133;47.866;-4.222;2022-12-05T01:08:43;8.77;;;5.30;;
44426;SDS011;30133;47.866;-4.222;2022-12-05T01:11:10;9.93;;;4.43;;
44426;SDS011;30133;47.866;-4.222;2022-12-05T01:13:39;11.63;;;4.57;;
44426;SDS011;30133;47.866;-4.222;2022-12-05T01:16:05;9.70;;;5.18;;
44426;SDS011;30133;47.866;-4.222;2022-12-05T01:18:38;8.25;;;5.18;;
44426;SDS011;30133;47.866;-4.222;2022-12-05T01:21:04;8.75;;;4.55;;
44426;SDS011;30133;47.866;-4.222;2022-12-05T01:23:31;9.55;;;4.47;;
44426;SDS011;30133;47.866;-4.222;2022-12-05T01:25:57;9.10;;;4.97;;
44426;SDS011;30133;47.866;-4.222;2022-12-05T01:28:23;8.13;;;4.65;;
44426;SDS011;30133;47.866;-4.222;2022-12-05T01:30:49;7.35;;;4.53;;
44426;SDS011;30133;47.866;-4.222;2022-12-05T01:33:15;7.30;;;4.72;;
44426;SDS011;30133;47.866;-4.222;2022-12-05T01:35:42;7.55;;;4.45;;
44426;SDS011;30133;47.866;-4.222;2022-12-05T01:38:09;9.65;;;5.68;;
44426;SDS011;30133;47.866;-4.222;2022-12-05T01:40:37;9.80;;;4.82;;
44426;SDS011;30133;47.866;-4.222;2022-12-05T01:43:05;6.97;;;4.30;;
44426;SDS011;30133;47.866;-4.222;2022-12-05T01:45:43;7.65;;;4.60;;
44426;SDS011;30133;47.866;-4.222;2022-12-05T01:48:13;6.60;;;4.38;;
44426;SDS011;30133;47.866;-4.222;2022-12-05T01:50:46;7.80;;;4.07;;
44426;SDS011;30133;47.866;-4.222;2022-12-05T01:53:13;7.45;;;4.68;;
44426;SDS011;30133;47.866;-4.222;2022-12-05T01:55:41;8.70;;;4.75;;
44426;SDS011;30133;47.866;-4.222;2022-12-05T01:58:08;8.57;;;4.45;;
44426;SDS011;30133;47.866;-4.222;2022-12-05T02:00:35;7.78;;;4.38;;
44426;SDS011;30133;47.866;-4.222;2022-12-05T02:03:05;8.95;;;5.07;;
44426;SDS011;30133;47.866;-4.222;2022-12-05T02:05:35;8.60;;;4.75;;
44426;SDS011;30133;47.866;-4.222;2022-12-05T02:08:04;7.03;;;4.35;;
44426;SDS011;30133;47.866;-4.222;2022-12-05T02:10:34;9.05;;;5.25;;
44426;SDS011;30133;47.866;-4.222;2022-12-05T02:16:39;7.95;;;4.45;;
44426;SDS011;30133;47.866;-4.222;2022-12-05T02:19:39;9.30;;;5.20;;
44426;SDS011;30133;47.866;-4.222;2022-12-05T02:28:05;7.28;;;4.60;;
44426;SDS011;30133;47.866;-4.222;2022-12-05T02:30:40;7.80;;;4.88;;
44426;SDS011;30133;47.866;-4.222;2022-12-05T02:38:44;8.93;;;4.95;;
44426;SDS011;30133;47.866;-4.222;2022-12-05T02:41:42;6.60;;;4.68;;
44426;SDS011;30133;47.866;-4.222;2022-12-05T02:47:14;7.55;;;5.25;;
44426;SDS011;30133;47.866;-4.222;2022-12-05T02:49:44;10.20;;;4.72;;
44426;SDS011;30133;47.866;-4.222;2022-12-05T02:52:11;7.93;;;4.30;;
44426;SDS011;30133;47.866;-4.222;2022-12-05T02:54:41;7.32;;;4.72;;
44426;SDS011;30133;47.866;-4.222;2022-12-05T02:57:11;7.72;;;4.45;;
44426;SDS011;30133;47.866;-4.222;2022-12-05T02:59:38;7.45;;;4.60;;
44426;SDS011;30133;47.866;-4.222;2022-12-05T03:02:28;6.70;;;4.57;;
44426;SDS011;30133;47.866;-4.222;2022-12-05T03:08:26;11.32;;;6.03;;
44426;SDS011;30133;47.866;-4.222;2022-12-05T03:11:00;9.18;;;4.90;;
44426;SDS011;30133;47.866;-4.222;2022-12-05T03:13:31;10.38;;;5.45;;
44426;SDS011;30133;47.866;-4.222;2022-12-05T03:16:06;7.80;;;4.32;;
44426;SDS011;30133;47.866;-4.222;2022-12-05T03:19:00;7.60;;;4.20;;
44426;SDS011;30133;47.866;-4.222;2022-12-05T03:21:38;7.03;;;4.07;;
44426;SDS011;30133;47.866;-4.222;2022-12-05T03:24:17;7.75;;;4.47;;
44426;SDS011;30133;47.866;-4.222;2022-12-05T03:29:27;8.45;;;4.47;;
44426;SDS011;30133;47.866;-4.222;2022-12-05T03:32:14;7.88;;;4.60;;
44426;SDS011;30133;47.866;-4.222;2022-12-05T03:38:12;6.45;;;4.47;;
44426;SDS011;30133;47.866;-4.222;2022-12-05T03:43:28;9.00;;;5.28;;
44426;SDS011;30133;47.866;-4.222;2022-12-05T03:46:11;7.32;;;4.40;;
44426;SDS011;30133;47.866;-4.222;2022-12-05T03:51:39;7.65;;;5.07;;
44426;SDS011;30133;47.866;-4.222;2022-12-05T03:54:28;8.77;;;5.00;;
44426;SDS011;30133;47.866;-4.222;2022-12-05T03:57:21;8.75;;;4.55;;
44426;SDS011;30133;47.866;-4.222;2022-12-05T04:00:11;10.75;;;4.88;;
44426;SDS011;30133;47.866;-4.222;2022-12-05T04:02:46;7.22;;;4.50;;
44426;SDS011;30133;47.866;-4.222;2022-12-05T04:07:58;9.57;;;4.78;;
44426;SDS011;30133;47.866;-4.222;2022-12-05T04:10:30;6.75;;;4.60;;
44426;SDS011;30133;47.866;-4.222;2022-12-05T04:13:13;7.18;;;3.95;;
44426;SDS011;30133;47.866;-4.222;2022-12-05T04:15:50;8.90;;;5.30;;
44426;SDS011;30133;47.866;-4.222;2022-12-05T04:20:08;7.20;;;4.65;;
44426;SDS011;30133;47.866;-4.222;2022-12-05T04:22:30;10.15;;;5.22;;
44426;SDS011;30133;47.866;-4.222;2022-12-05T04:24:57;7.45;;;4.47;;
44426;SDS011;30133;47.866;-4.222;2022-12-05T04:30:23;7.93;;;4.47;;
44426;SDS011;30133;47.866;-4.222;2022-12-05T04:33:13;7.10;;;4.28;;
44426;SDS011;30133;47.866;-4.222;2022-12-05T04:35:59;7.65;;;4.72;;
44426;SDS011;30133;47.866;-4.222;2022-12-05T04:38:46;9.00;;;5.13;;
44426;SDS011;30133;47.866;-4.222;2022-12-05T04:44:09;8.98;;;4.95;;
44426;SDS011;30133;47.866;-4.222;2022-12-05T04:46:40;7.95;;;4.80;;
44426;SDS011;30133;47.866;-4.222;2022-12-05T04:49:09;8.27;;;4.68;;
44426;SDS011;30133;47.866;-4.222;2022-12-05T04:51:44;7.32;;;4.47;;
44426;SDS011;30133;47.866;-4.222;2022-12-05T04:54:16;8.20;;;4.43;;
44426;SDS011;30133;47.866;-4.222;2022-12-05T04:56:59;9.98;;;4.90;;
44426;SDS011;30133;47.866;-4.222;2022-12-05T04:59:38;8.95;;;4.53;;
44426;SDS011;30133;47.866;-4.222;2022-12-05T05:02:08;9.63;;;5.05;;
44426;SDS011;30133;47.866;-4.222;2022-12-05T05:04:47;8.68;;;5.03;;
44426;SDS011;30133;47.866;-4.222;2022-12-05T05:07:17;7.63;;;4.60;;
44426;SDS011;30133;47.866;-4.222;2022-12-05T05:09:44;9.00;;;4.97;;
44426;SDS011;30133;47.866;-4.222;2022-12-05T05:12:10;10.02;;;5.22;;
44426;SDS011;30133;47.866;-4.222;2022-12-05T05:14:37;8.80;;;4.78;;
44426;SDS011;30133;47.866;-4.222;2022-12-05T05:17:03;9.25;;;4.68;;
44426;SDS011;30133;47.866;-4.222;2022-12-05T05:19:29;8.73;;;4.97;;
44426;SDS011;30133;47.866;-4.222;2022-12-05T05:21:55;8.05;;;4.80;;
44426;SDS011;30133;47.866;-4.222;2022-12-05T05:24:21;8.00;;;4.68;;
44426;SDS011;30133;47.866;-4.222;2022-12-05T05:26:50;8.13;;;4.75;;
44426;SDS011;30133;47.866;-4.222;2022-12-05T05:29:17;9.18;;;4.82;;
44426;SDS011;30133;47.866;-4.222;2022-12-05T05:31:43;7.82;;;4.63;;
44426;SDS011;30133;47.866;-4.222;2022-12-05T05:34:10;7.40;;;4.30;;
44426;SDS011;30133;47.866;-4.222;2022-12-05T05:36:40;7.32;;;4.40;;
44426;SDS011;30133;47.866;-4.222;2022-12-05T05:39:10;7.55;;;4.75;;
44426;SDS011;30133;47.866;-4.222;2022-12-05T05:41:39;7.25;;;4.47;;
44426;SDS011;30133;47.866;-4.222;2022-12-05T05:44:06;8.98;;;4.57;;
44426;SDS011;30133;47.866;-4.222;2022-12-05T05:46:33;9.23;;;4.80;;
44426;SDS011;30133;47.866;-4.222;2022-12-05T05:49:00;6.65;;;4.45;;
44426;SDS011;30133;47.866;-4.222;2022-12-05T05:51:27;7.35;;;4.40;;
44426;SDS011;30133;47.866;-4.222;2022-12-05T05:53:54;8.55;;;4.68;;
44426;SDS011;30133;47.866;-4.222;2022-12-05T05:56:22;8.95;;;4.45;;
44426;SDS011;30133;47.866;-4.222;2022-12-05T05:58:53;8.35;;;4.93;;
44426;SDS011;30133;47.866;-4.222;2022-12-05T06:01:24;9.10;;;4.75;;
44426;SDS011;30133;47.866;-4.222;2022-12-05T06:03:51;11.65;;;5.55;;
44426;SDS011;30133;47.866;-4.222;2022-12-05T06:06:17;9.52;;;4.65;;
44426;SDS011;30133;47.866;-4.222;2022-12-05T06:08:45;9.70;;;4.97;;
44426;SDS011;30133;47.866;-4.222;2022-12-05T06:13:45;9.85;;;4.63;;
44426;SDS011;30133;47.866;-4.222;2022-12-05T06:16:12;10.75;;;5.88;;
44426;SDS011;30133;47.866;-4.222;2022-12-05T06:18:40;7.15;;;4.55;;
44426;SDS011;30133;47.866;-4.222;2022-12-05T06:21:06;9.63;;;4.40;;
44426;SDS011;30133;47.866;-4.222;2022-12-05T06:23:34;10.35;;;5.25;;
44426;SDS011;30133;47.866;-4.222;2022-12-05T06:26:02;8.88;;;5.00;;
44426;SDS011;30133;47.866;-4.222;2022-12-05T06:28:31;11.43;;;5.82;;
44426;SDS011;30133;47.866;-4.222;2022-12-05T06:30:57;9.90;;;5.32;;
44426;SDS011;30133;47.866;-4.222;2022-12-05T06:33:23;8.32;;;4.85;;
44426;SDS011;30133;47.866;-4.222;2022-12-05T06:36:00;7.13;;;4.85;;
44426;SDS011;30133;47.866;-4.222;2022-12-05T06:38:28;11.35;;;5.32;;
44426;SDS011;30133;47.866;-4.222;2022-12-05T06:40:55;8.32;;;4.78;;
44426;SDS011;30133;47.866;-4.222;2022-12-05T06:43:21;7.82;;;5.03;;
44426;SDS011;30133;47.866;-4.222;2022-12-05T06:45:47;10.88;;;5.25;;
44426;SDS011;30133;47.866;-4.222;2022-12-05T06:48:13;11.05;;;5.47;;
44426;SDS011;30133;47.866;-4.222;2022-12-05T06:50:39;10.75;;;5.60;;
44426;SDS011;30133;47.866;-4.222;2022-12-05T06:55:39;8.63;;;4.60;;
44426;SDS011;30133;47.866;-4.222;2022-12-05T06:58:05;8.57;;;5.55;;
44426;SDS011;30133;47.866;-4.222;2022-12-05T07:00:31;7.90;;;5.22;;
44426;SDS011;30133;47.866;-4.222;2022-12-05T07:03:15;9.90;;;4.93;;
44426;SDS011;30133;47.866;-4.222;2022-12-05T07:05:41;10.40;;;5.38;;
44426;SDS011;30133;47.866;-4.222;2022-12-05T07:08:07;8.43;;;4.53;;
44426;SDS011;30133;47.866;-4.222;2022-12-05T07:10:34;8.40;;;4.95;;
44426;SDS011;30133;47.866;-4.222;2022-12-05T07:13:00;10.82;;;5.63;;
44426;SDS011;30133;47.866;-4.222;2022-12-05T07:15:26;10.25;;;5.68;;
44426;SDS011;30133;47.866;-4.222;2022-12-05T07:17:52;10.93;;;5.72;;
44426;SDS011;30133;47.866;-4.222;2022-12-05T07:20:18;8.93;;;5.35;;
44426;SDS011;30133;47.866;-4.222;2022-12-05T07:22:44;9.20;;;5.18;;
44426;SDS011;30133;47.866;-4.222;2022-12-05T07:25:11;10.35;;;5.32;;
44426;SDS011;30133;47.866;-4.222;2022-12-05T07:27:37;8.80;;;5.20;;
44426;SDS011;30133;47.866;-4.222;2022-12-05T07:30:04;10.05;;;4.50;;
44426;SDS011;30133;47.866;-4.222;2022-12-05T07:32:31;9.23;;;5.53;;
44426;SDS011;30133;47.866;-4.222;2022-12-05T07:34:58;10.80;;;5.35;;
44426;SDS011;30133;47.866;-4.222;2022-12-05T07:37:24;11.00;;;5.40;;
44426;SDS011;30133;47.866;-4.222;2022-12-05T07:39:53;7.57;;;4.20;;
44426;SDS011;30133;47.866;-4.222;2022-12-05T07:42:19;10.15;;;5.10;;
44426;SDS011;30133;47.866;-4.222;2022-12-05T07:44:45;10.93;;;5.10;;
44426;SDS011;30133;47.866;-4.222;2022-12-05T07:47:12;13.35;;;5.85;;
44426;SDS011;30133;47.866;-4.222;2022-12-05T07:49:38;9.63;;;5.40;;
44426;SDS011;30133;47.866;-4.222;2022-12-05T07:52:04;10.30;;;5.60;;
44426;SDS011;30133;47.866;-4.222;2022-12-05T07:54:30;9.15;;;5.38;;
44426;SDS011;30133;47.866;-4.222;2022-12-05T07:56:57;8.63;;;5.28;;
44426;SDS011;30133;47.866;-4.222;2022-12-05T07:59:25;10.57;;;4.90;;
44426;SDS011;30133;47.866;-4.222;2022-12-05T08:01:58;12.23;;;5.72;;
44426;SDS011;30133;47.866;-4.222;2022-12-05T08:04:24;9.80;;;4.88;;
44426;SDS011;30133;47.866;-4.222;2022-12-05T08:06:50;11.13;;;5.93;;
44426;SDS011;30133;47.866;-4.222;2022-12-05T08:09:19;7.30;;;4.93;;
44426;SDS011;30133;47.866;-4.222;2022-12-05T08:11:45;7.78;;;4.78;;
44426;SDS011;30133;47.866;-4.222;2022-12-05T08:14:11;8.05;;;4.95;;
44426;SDS011;30133;47.866;-4.222;2022-12-05T08:16:37;9.68;;;5.28;;
44426;SDS011;30133;47.866;-4.222;2022-12-05T08:19:04;9.85;;;5.78;;
44426;SDS011;30133;47.866;-4.222;2022-12-05T08:21:32;8.35;;;5.20;;
44426;SDS011;30133;47.866;-4.222;2022-12-05T08:23:59;8.05;;;5.28;;
44426;SDS011;30133;47.866;-4.222;2022-12-05T08:26:27;9.80;;;5.15;;
44426;SDS011;30133;47.866;-4.222;2022-12-05T08:28:58;11.30;;;5.88;;
44426;SDS011;30133;47.866;-4.222;2022-12-05T08:31:31;10.73;;;5.47;;
44426;SDS011;30133;47.866;-4.222;2022-12-05T08:33:59;10.85;;;5.25;;
44426;SDS011;30133;47.866;-4.222;2022-12-05T08:36:26;9.68;;;5.65;;
44426;SDS011;30133;47.866;-4.222;2022-12-05T08:38:55;9.40;;;5.00;;
44426;SDS011;30133;47.866;-4.222;2022-12-05T08:41:23;9.82;;;5.32;;
44426;SDS011;30133;47.866;-4.222;2022-12-05T08:43:58;9.13;;;5.18;;
44426;SDS011;30133;47.866;-4.222;2022-12-05T08:46:32;11.18;;;4.90;;
44426;SDS011;30133;47.866;-4.222;2022-12-05T08:49:02;8.07;;;4.88;;
44426;SDS011;30133;47.866;-4.222;2022-12-05T08:51:29;9.68;;;4.72;;
44426;SDS011;30133;47.866;-4.222;2022-12-05T08:53:55;8.93;;;5.05;;
44426;SDS011;30133;47.866;-4.222;2022-12-05T08:56:21;9.70;;;4.72;;
44426;SDS011;30133;47.866;-4.222;2022-12-05T08:58:49;10.23;;;5.20;;
44426;SDS011;30133;47.866;-4.222;2022-12-05T09:01:16;9.63;;;4.78;;
44426;SDS011;30133;47.866;-4.222;2022-12-05T09:03:48;8.07;;;5.20;;
44426;SDS011;30133;47.866;-4.222;2022-12-05T09:08:55;8.90;;;4.82;;
44426;SDS011;30133;47.866;-4.222;2022-12-05T09:11:29;8.98;;;4.88;;
44426;SDS011;30133;47.866;-4.222;2022-12-05T09:13:59;9.63;;;4.97;;
44426;SDS011;30133;47.866;-4.222;2022-12-05T09:16:27;8.48;;;4.60;;
44426;SDS011;30133;47.866;-4.222;2022-12-05T09:18:56;9.38;;;4.75;;
44426;SDS011;30133;47.866;-4.222;2022-12-05T09:21:24;12.93;;;5.28;;
44426;SDS011;30133;47.866;-4.222;2022-12-05T09:23:53;9.13;;;5.30;;
44426;SDS011;30133;47.866;-4.222;2022-12-05T09:26:21;9.82;;;5.35;;
44426;SDS011;30133;47.866;-4.222;2022-12-05T09:28:49;8.65;;;5.28;;
44426;SDS011;30133;47.866;-4.222;2022-12-05T09:31:17;8.48;;;5.28;;
44426;SDS011;30133;47.866;-4.222;2022-12-05T09:33:48;7.82;;;4.45;;
44426;SDS011;30133;47.866;-4.222;2022-12-05T09:36:17;7.90;;;4.57;;
44426;SDS011;30133;47.866;-4.222;2022-12-05T09:38:48;8.07;;;4.65;;
44426;SDS011;30133;47.866;-4.222;2022-12-05T09:44:38;8.80;;;4.82;;
44426;SDS011;30133;47.866;-4.222;2022-12-05T09:50:26;9.20;;;5.22;;
44426;SDS011;30133;47.866;-4.222;2022-12-05T09:53:23;9.32;;;5.07;;
44426;SDS011;30133;47.866;-4.222;2022-12-05T09:56:01;8.73;;;4.47;;
44426;SDS011;30133;47.866;-4.222;2022-12-05T10:16:28;8.95;;;5.13;;
44426;SDS011;30133;47.866;-4.222;2022-12-05T10:19:20;8.45;;;4.80;;
44426;SDS011;30133;47.866;-4.222;2022-12-05T10:22:10;8.45;;;4.97;;
44426;SDS011;30133;47.866;-4.222;2022-12-05T10:24:52;9.90;;;4.82;;
44426;SDS011;30133;47.866;-4.222;2022-12-05T10:30:04;10.05;;;4.80;;
44426;SDS011;30133;47.866;-4.222;2022-12-05T10:32:49;8.48;;;4.82;;
44426;SDS011;30133;47.866;-4.222;2022-12-05T10:37:51;10.57;;;5.00;;
44426;SDS011;30133;47.866;-4.222;2022-12-05T10:40:25;9.48;;;5.18;;
44426;SDS011;30133;47.866;-4.222;2022-12-05T10:42:58;9.15;;;4.97;;
44426;SDS011;30133;47.866;-4.222;2022-12-05T10:45:27;8.73;;;4.55;;
44426;SDS011;30133;47.866;-4.222;2022-12-05T10:47:54;8.45;;;4.53;;
44426;SDS011;30133;47.866;-4.222;2022-12-05T10:50:31;8.15;;;4.55;;
44426;SDS011;30133;47.866;-4.222;2022-12-05T10:53:01;10.38;;;4.55;;
44426;SDS011;30133;47.866;-4.222;2022-12-05T10:55:31;8.45;;;4.82;;
44426;SDS011;30133;47.866;-4.222;2022-12-05T10:58:20;9.15;;;4.57;;
44426;SDS011;30133;47.866;-4.222;2022-12-05T11:01:12;9.02;;;4.10;;
44426;SDS011;30133;47.866;-4.222;2022-12-05T11:03:54;9.32;;;4.82;;
44426;SDS011;30133;47.866;-4.222;2022-12-05T11:06:24;6.25;;;3.85;;
44426;SDS011;30133;47.866;-4.222;2022-12-05T11:08:54;6.65;;;4.38;;
44426;SDS011;30133;47.866;-4.222;2022-12-05T11:11:24;8.55;;;5.03;;
44426;SDS011;30133;47.866;-4.222;2022-12-05T11:13:58;7.22;;;4.25;;
44426;SDS011;30133;47.866;-4.222;2022-12-05T11:16:34;7.72;;;4.50;;
44426;SDS011;30133;47.866;-4.222;2022-12-05T11:21:55;7.13;;;3.92;;
44426;SDS011;30133;47.866;-4.222;2022-12-05T11:24:23;7.80;;;4.22;;
44426;SDS011;30133;47.866;-4.222;2022-12-05T11:26:56;7.03;;;4.22;;
44426;SDS011;30133;47.866;-4.222;2022-12-05T11:30:03;7.00;;;4.07;;
44426;SDS011;30133;47.866;-4.222;2022-12-05T11:33:14;10.95;;;4.72;;
44426;SDS011;30133;47.866;-4.222;2022-12-05T11:35:52;7.88;;;5.20;;
44426;SDS011;30133;47.866;-4.222;2022-12-05T11:38:23;7.68;;;4.63;;
44426;SDS011;30133;47.866;-4.222;2022-12-05T12:06:45;5.82;;;3.65;;
44426;SDS011;30133;47.866;-4.222;2022-12-05T12:09:55;7.95;;;4.13;;
44426;SDS011;30133;47.866;-4.222;2022-12-05T12:15:33;9.27;;;4.30;;
44426;SDS011;30133;47.866;-4.222;2022-12-05T12:24:00;7.18;;;4.35;;
44426;SDS011;30133;47.866;-4.222;2022-12-05T12:27:10;8.00;;;4.63;;
44426;SDS011;30133;47.866;-4.222;2022-12-05T12:31:01;7.13;;;4.15;;
44426;SDS011;30133;47.866;-4.222;2022-12-05T12:33:29;8.55;;;4.97;;
44426;SDS011;30133;47.866;-4.222;2022-12-05T12:44:58;6.25;;;3.85;;
44426;SDS011;30133;47.866;-4.222;2022-12-05T12:48:04;7.90;;;4.80;;
44426;SDS011;30133;47.866;-4.222;2022-12-05T12:51:05;6.45;;;3.90;;
44426;SDS011;30133;47.866;-4.222;2022-12-05T12:53:44;7.32;;;3.72;;
44426;SDS011;30133;47.866;-4.222;2022-12-05T13:01:59;6.20;;;3.60;;
44426;SDS011;30133;47.866;-4.222;2022-12-05T13:05:06;8.40;;;4.05;;
44426;SDS011;30133;47.866;-4.222;2022-12-05T13:07:50;9.85;;;3.67;;
44426;SDS011;30133;47.866;-4.222;2022-12-05T13:10:39;8.23;;;3.67;;
44426;SDS011;30133;47.866;-4.222;2022-12-05T13:13:31;8.00;;;3.90;;
44426;SDS011;30133;47.866;-4.222;2022-12-05T13:16:04;8.00;;;4.22;;
44426;SDS011;30133;47.866;-4.222;2022-12-05T13:18:32;8.48;;;4.00;;
44426;SDS011;30133;47.866;-4.222;2022-12-05T13:20:59;7.22;;;4.13;;
44426;SDS011;30133;47.866;-4.222;2022-12-05T13:23:32;6.60;;;3.50;;
44426;SDS011;30133;47.866;-4.222;2022-12-05T13:26:09;9.02;;;4.13;;
44426;SDS011;30133;47.866;-4.222;2022-12-05T13:28:48;6.75;;;3.85;;
44426;SDS011;30133;47.866;-4.222;2022-12-05T13:34:04;6.45;;;4.05;;
44426;SDS011;30133;47.866;-4.222;2022-12-05T13:36:37;9.00;;;4.55;;
44426;SDS011;30133;47.866;-4.222;2022-12-05T13:39:23;7.22;;;4.22;;
44426;SDS011;30133;47.866;-4.222;2022-12-05T13:42:22;6.47;;;3.70;;
44426;SDS011;30133;47.866;-4.222;2022-12-05T13:50:40;6.28;;;3.58;;
44426;SDS011;30133;47.866;-4.222;2022-12-05T13:53:25;5.10;;;3.63;;
44426;SDS011;30133;47.866;-4.222;2022-12-05T13:58:50;6.18;;;3.13;;
44426;SDS011;30133;47.866;-4.222;2022-12-05T14:15:22;6.65;;;3.03;;
44426;SDS011;30133;47.866;-4.222;2022-12-05T14:17:40;8.73;;;3.42;;
44426;SDS011;30133;47.866;-4.222;2022-12-05T14:20:15;6.88;;;3.38;;
44426;SDS011;30133;47.866;-4.222;2022-12-05T14:32:32;5.20;;;3.30;;
44426;SDS011;30133;47.866;-4.222;2022-12-05T14:35:18;6.32;;;3.70;;
44426;SDS011;30133;47.866;-4.222;2022-12-05T14:37:55;7.85;;;3.95;;
44426;SDS011;30133;47.866;-4.222;2022-12-05T14:40:34;7.32;;;3.50;;
44426;SDS011;30133;47.866;-4.222;2022-12-05T14:43:07;5.47;;;3.03;;
44426;SDS011;30133;47.866;-4.222;2022-12-05T14:45:58;7.82;;;3.75;;
44426;SDS011;30133;47.866;-4.222;2022-12-05T14:51:00;5.10;;;3.42;;
44426;SDS011;30133;47.866;-4.222;2022-12-05T14:53:34;6.13;;;3.70;;
44426;SDS011;30133;47.866;-4.222;2022-12-05T15:01:56;8.07;;;3.60;;
44426;SDS011;30133;47.866;-4.222;2022-12-05T15:07:48;8.68;;;3.97;;
44426;SDS011;30133;47.866;-4.222;2022-12-05T15:12:44;4.88;;;2.83;;
44426;SDS011;30133;47.866;-4.222;2022-12-05T15:29:26;10.05;;;3.80;;
44426;SDS011;30133;47.866;-4.222;2022-12-05T15:34:36;5.38;;;3.40;;
44426;SDS011;30133;47.866;-4.222;2022-12-05T15:39:59;8.73;;;4.15;;
44426;SDS011;30133;47.866;-4.222;2022-12-05T15:42:44;7.35;;;3.25;;
44426;SDS011;30133;47.866;-4.222;2022-12-05T15:45:17;5.50;;;3.55;;
44426;SDS011;30133;47.866;-4.222;2022-12-05T15:50:37;5.43;;;2.83;;
44426;SDS011;30133;47.866;-4.222;2022-12-05T15:56:16;8.68;;;4.30;;
44426;SDS011;30133;47.866;-4.222;2022-12-05T16:02:25;7.90;;;3.03;;
44426;SDS011;30133;47.866;-4.222;2022-12-05T16:08:05;6.50;;;2.70;;
44426;SDS011;30133;47.866;-4.222;2022-12-05T16:10:33;7.10;;;3.22;;
44426;SDS011;30133;47.866;-4.222;2022-12-05T16:13:07;6.50;;;3.40;;
44426;SDS011;30133;47.866;-4.222;2022-12-05T16:15:46;4.45;;;2.70;;
44426;SDS011;30133;47.866;-4.222;2022-12-05T16:18:22;7.03;;;3.53;;
44426;SDS011;30133;47.866;-4.222;2022-12-05T16:20:54;7.55;;;3.55;;
44426;SDS011;30133;47.866;-4.222;2022-12-05T16:23:28;7.03;;;3.75;;
44426;SDS011;30133;47.866;-4.222;2022-12-05T16:28:41;8.05;;;4.00;;
44426;SDS011;30133;47.866;-4.222;2022-12-05T16:31:27;7.90;;;3.50;;
44426;SDS011;30133;47.866;-4.222;2022-12-05T16:34:00;6.10;;;3.13;;
44426;SDS011;30133;47.866;-4.222;2022-12-05T16:36:35;5.70;;;3.08;;
44426;SDS011;30133;47.866;-4.222;2022-12-05T16:39:14;5.28;;;2.83;;
44426;SDS011;30133;47.866;-4.222;2022-12-05T16:41:41;6.88;;;3.00;;
44426;SDS011;30133;47.866;-4.222;2022-12-05T16:46:53;6.15;;;3.28;;
44426;SDS011;30133;47.866;-4.222;2022-12-05T16:49:37;7.57;;;3.28;;
44426;SDS011;30133;47.866;-4.222;2022-12-05T16:52:13;6.07;;;3.47;;
44426;SDS011;30133;47.866;-4.222;2022-12-05T16:54:41;5.13;;;3.05;;
44426;SDS011;30133;47.866;-4.222;2022-12-05T16:57:14;7.72;;;3.70;;
44426;SDS011;30133;47.866;-4.222;2022-12-05T16:59:41;6.45;;;3.53;;
44426;SDS011;30133;47.866;-4.222;2022-12-05T17:02:18;5.30;;;3.00;;
44426;SDS011;30133;47.866;-4.222;2022-12-05T17:04:44;5.68;;;3.03;;
44426;SDS011;30133;47.866;-4.222;2022-12-05T17:07:11;6.45;;;3.30;;
44426;SDS011;30133;47.866;-4.222;2022-12-05T17:09:37;6.10;;;3.47;;
44426;SDS011;30133;47.866;-4.222;2022-12-05T17:12:06;5.05;;;3.33;;
44426;SDS011;30133;47.866;-4.222;2022-12-05T17:14:45;6.57;;;3.22;;
44426;SDS011;30133;47.866;-4.222;2022-12-05T17:17:12;4.28;;;2.58;;
44426;SDS011;30133;47.866;-4.222;2022-12-05T17:19:40;8.27;;;3.40;;
44426;SDS011;30133;47.866;-4.222;2022-12-05T17:22:06;5.25;;;3.00;;
44426;SDS011;30133;47.866;-4.222;2022-12-05T17:24:32;5.43;;;3.00;;
44426;SDS011;30133;47.866;-4.222;2022-12-05T17:26:59;8.35;;;3.85;;
44426;SDS011;30133;47.866;-4.222;2022-12-05T17:29:25;11.93;;;3.97;;
44426;SDS011;30133;47.866;-4.222;2022-12-05T17:31:51;5.65;;;2.97;;
44426;SDS011;30133;47.866;-4.222;2022-12-05T17:34:22;5.53;;;3.00;;
44426;SDS011;30133;47.866;-4.222;2022-12-05T17:36:50;4.65;;;2.85;;
44426;SDS011;30133;47.866;-4.222;2022-12-05T17:39:19;5.82;;;2.88;;
44426;SDS011;30133;47.866;-4.222;2022-12-05T17:41:52;5.60;;;3.40;;
44426;SDS011;30133;47.866;-4.222;2022-12-05T17:44:18;4.30;;;2.72;;
44426;SDS011;30133;47.866;-4.222;2022-12-05T17:46:51;6.88;;;3.03;;
44426;SDS011;30133;47.866;-4.222;2022-12-05T17:49:18;5.55;;;3.25;;
44426;SDS011;30133;47.866;-4.222;2022-12-05T17:51:46;4.22;;;2.80;;
44426;SDS011;30133;47.866;-4.222;2022-12-05T17:54:14;4.70;;;3.15;;
44426;SDS011;30133;47.866;-4.222;2022-12-05T17:56:42;6.45;;;3.25;;
44426;SDS011;30133;47.866;-4.222;2022-12-05T17:59:09;7.20;;;3.70;;
44426;SDS011;30133;47.866;-4.222;2022-12-05T18:01:35;7.35;;;3.50;;
44426;SDS011;30133;47.866;-4.222;2022-12-05T18:04:01;10.07;;;3.50;;
44426;SDS011;30133;47.866;-4.222;2022-12-05T18:06:27;4.70;;;2.65;;
44426;SDS011;30133;47.866;-4.222;2022-12-05T18:08:53;7.75;;;3.22;;
44426;SDS011;30133;47.866;-4.222;2022-12-05T18:11:19;8.10;;;3.78;;
44426;SDS011;30133;47.866;-4.222;2022-12-05T18:13:45;6.40;;;3.55;;
44426;SDS011;30133;47.866;-4.222;2022-12-05T18:16:11;7.97;;;4.05;;
44426;SDS011;30133;47.866;-4.222;2022-12-05T18:18:37;5.95;;;3.70;;
44426;SDS011;30133;47.866;-4.222;2022-12-05T18:21:10;7.18;;;3.67;;
44426;SDS011;30133;47.866;-4.222;2022-12-05T18:23:37;7.18;;;3.88;;
44426;SDS011;30133;47.866;-4.222;2022-12-05T18:26:04;5.75;;;3.30;;
44426;SDS011;30133;47.866;-4.222;2022-12-05T18:28:33;6.30;;;3.45;;
44426;SDS011;30133;47.866;-4.222;2022-12-05T18:31:19;8.38;;;3.15;;
44426;SDS011;30133;47.866;-4.222;2022-12-05T18:33:45;8.98;;;3.75;;
44426;SDS011;30133;47.866;-4.222;2022-12-05T18:36:13;6.53;;;3.47;;
44426;SDS011;30133;47.866;-4.222;2022-12-05T18:38:47;4.72;;;3.05;;
44426;SDS011;30133;47.866;-4.222;2022-12-05T18:41:25;7.43;;;3.35;;
44426;SDS011;30133;47.866;-4.222;2022-12-05T18:43:52;6.03;;;3.30;;